createdAt,value
2022-10-26T00:00:08.158Z,12.21
2022-10-26T00:02:16.679Z,12.16
2022-10-26T00:04:21.580Z,12.15
2022-10-26T00:06:29.059Z,12.15
2022-10-26T00:08:33.875Z,12.14
2022-10-26T00:10:39.617Z,12.11
2022-10-26T00:12:47.261Z,12.09
2022-10-26T00:14:52.181Z,12.11
2022-10-26T00:16:57.014Z,12.11
2022-10-26T00:19:01.880Z,12.10
2022-10-26T00:21:07.191Z,12.13
2022-10-26T00:23:11.680Z,12.13
2022-10-26T00:25:16.464Z,12.14
2022-10-26T00:27:21.219Z,12.15
2022-10-26T00:29:31.116Z,12.21
2022-10-26T00:31:36.357Z,12.24
2022-10-26T00:33:40.860Z,12.26
2022-10-26T00:35:46.369Z,12.30
2022-10-26T00:37:51.553Z,12.37
2022-10-26T00:39:56.398Z,12.43
2022-10-26T00:42:01.143Z,12.44
2022-10-26T00:44:36.868Z,12.49
2022-10-26T00:46:44.455Z,12.51
2022-10-26T00:48:52.814Z,12.50
2022-10-26T00:51:01.568Z,12.51
2022-10-26T00:53:08.132Z,12.51
2022-10-26T00:55:13.434Z,12.58
2022-10-26T00:57:20.137Z,12.65
2022-10-26T00:59:26.053Z,12.71
2022-10-26T01:01:31.743Z,12.71
2022-10-26T01:03:40.883Z,12.69
2022-10-26T01:05:48.270Z,12.58
2022-10-26T01:07:54.584Z,12.57
2022-10-26T01:10:00.269Z,12.58
2022-10-26T01:12:05.021Z,12.60
2022-10-26T01:14:12.733Z,12.62
2022-10-26T01:16:43.424Z,12.55
2022-10-26T01:19:02.303Z,12.43
2022-10-26T01:21:45.504Z,12.43
2022-10-26T01:24:09.917Z,12.45
2022-10-26T01:26:47.559Z,12.49
2022-10-26T01:29:25.881Z,12.51
2022-10-26T01:31:37.359Z,12.52
2022-10-26T01:33:47.759Z,12.55
2022-10-26T01:36:01.074Z,12.59
2022-10-26T01:38:12.471Z,12.62
2022-10-26T01:40:22.488Z,12.61
2022-10-26T01:42:29.311Z,12.61
2022-10-26T01:44:41.987Z,12.65
2022-10-26T01:46:52.941Z,12.71
2022-10-26T01:49:02.479Z,12.78
2022-10-26T01:51:09.125Z,12.84
2022-10-26T01:53:15.334Z,12.89
2022-10-26T01:55:43.453Z,12.91
2022-10-26T01:57:48.614Z,12.90
2022-10-26T02:00:10.968Z,12.89
2022-10-26T02:02:38.304Z,12.86
2022-10-26T02:04:54.769Z,12.75
2022-10-26T02:07:06.168Z,12.67
2022-10-26T02:09:23.112Z,12.63
2022-10-26T02:11:39.379Z,12.67
2022-10-26T02:13:49.661Z,12.67
2022-10-26T02:15:58.377Z,12.71
2022-10-26T02:18:12.582Z,12.72
2022-10-26T02:20:24.778Z,12.73
2022-10-26T02:22:35.211Z,12.73
2022-10-26T02:24:40.785Z,12.74
2022-10-26T02:26:49.183Z,12.78
2022-10-26T02:28:56.805Z,12.81
2022-10-26T02:31:04.154Z,12.83
2022-10-26T02:33:13.817Z,12.85
2022-10-26T02:35:20.348Z,12.80
2022-10-26T02:37:27.246Z,12.85
2022-10-26T02:39:36.429Z,12.78
2022-10-26T02:41:43.642Z,12.82
2022-10-26T02:43:56.949Z,12.89
2022-10-26T02:46:08.481Z,12.93
2022-10-26T02:48:15.980Z,12.97
2022-10-26T02:50:22.303Z,12.98
2022-10-26T02:52:33.270Z,13.01
2022-10-26T02:54:49.094Z,13.04
2022-10-26T02:56:58.401Z,13.09
2022-10-26T02:59:08.223Z,13.12
2022-10-26T03:01:13.191Z,13.12
2022-10-26T03:03:22.477Z,13.11
2022-10-26T03:05:29.650Z,13.15
2022-10-26T03:07:34.572Z,13.16
2022-10-26T03:09:39.319Z,13.18
2022-10-26T03:11:44.070Z,13.18
2022-10-26T03:13:49.050Z,13.19
2022-10-26T03:15:53.786Z,13.15
2022-10-26T03:17:58.453Z,13.14
2022-10-26T03:20:06.985Z,13.16
2022-10-26T03:22:11.717Z,13.16
2022-10-26T03:24:16.485Z,13.18
2022-10-26T03:26:21.236Z,13.21
2022-10-26T03:28:26.048Z,13.23
2022-10-26T03:30:32.076Z,13.25
2022-10-26T03:32:36.944Z,13.25
2022-10-26T03:34:41.659Z,13.24
2022-10-26T03:36:49.177Z,13.24
2022-10-26T03:38:53.934Z,13.24
2022-10-26T03:40:58.797Z,13.22
2022-10-26T03:43:03.481Z,13.21
2022-10-26T03:45:10.160Z,13.20
2022-10-26T03:47:14.920Z,13.19
2022-10-26T03:49:19.662Z,13.18
2022-10-26T03:51:24.543Z,13.17
2022-10-26T03:53:31.951Z,13.14
2022-10-26T03:55:36.766Z,13.13
2022-10-26T03:57:45.380Z,13.12
2022-10-26T03:59:50.117Z,13.04
2022-10-26T04:01:57.668Z,13.01
2022-10-26T04:04:03.028Z,12.97
2022-10-26T04:06:08.417Z,12.99
2022-10-26T04:08:13.115Z,13.04
2022-10-26T04:10:20.741Z,13.07
2022-10-26T04:12:27.543Z,13.09
2022-10-26T04:14:32.270Z,13.12
2022-10-26T04:16:37.186Z,13.10
2022-10-26T04:18:41.920Z,13.09
2022-10-26T04:20:47.026Z,13.06
2022-10-26T04:22:59.585Z,13.05
2022-10-26T04:25:04.286Z,13.07
2022-10-26T04:27:11.610Z,13.06
2022-10-26T04:29:16.718Z,13.07
2022-10-26T04:31:21.428Z,13.07
2022-10-26T04:33:26.291Z,13.10
2022-10-26T04:35:31.673Z,13.14
2022-10-26T04:37:36.749Z,13.18
2022-10-26T04:39:41.498Z,13.20
2022-10-26T04:41:46.273Z,13.19
2022-10-26T04:43:53.656Z,13.18
2022-10-26T04:45:58.836Z,13.19
2022-10-26T04:48:07.383Z,13.19
2022-10-26T04:50:13.835Z,13.21
2022-10-26T04:52:18.584Z,13.25
2022-10-26T04:54:23.568Z,13.26
2022-10-26T04:56:31.441Z,13.26
2022-10-26T04:58:36.199Z,13.26
2022-10-26T05:00:43.623Z,13.26
2022-10-26T05:02:48.359Z,13.26
2022-10-26T05:04:53.156Z,13.27
2022-10-26T05:06:57.953Z,13.27
2022-10-26T05:09:02.711Z,13.27
2022-10-26T05:11:07.742Z,13.26
2022-10-26T05:13:12.449Z,13.24
2022-10-26T05:15:17.356Z,13.17
2022-10-26T05:17:24.697Z,13.20
2022-10-26T05:19:29.746Z,13.25
2022-10-26T05:21:34.580Z,13.28
2022-10-26T05:23:39.341Z,13.27
2022-10-26T05:25:44.521Z,13.31
2022-10-26T05:27:49.235Z,13.35
2022-10-26T05:29:54.010Z,13.36
2022-10-26T05:31:58.798Z,13.41
2022-10-26T05:34:06.297Z,13.45
2022-10-26T05:36:11.494Z,13.49
2022-10-26T05:38:17.043Z,13.50
2022-10-26T05:40:22.506Z,13.48
2022-10-26T05:42:27.547Z,13.52
2022-10-26T05:44:32.164Z,13.48
2022-10-26T05:46:36.918Z,13.48
2022-10-26T05:48:41.639Z,13.50
2022-10-26T05:50:49.524Z,13.50
2022-10-26T05:52:55.450Z,13.48
2022-10-26T05:55:00.248Z,13.50
2022-10-26T05:57:09.218Z,13.50
2022-10-26T05:59:17.398Z,13.48
2022-10-26T06:01:33.329Z,13.45
2022-10-26T06:03:50.376Z,13.41
2022-10-26T06:06:02.589Z,13.31
2022-10-26T06:08:13.181Z,13.31
2022-10-26T06:10:19.129Z,13.36
2022-10-26T06:12:26.092Z,13.40
2022-10-26T06:14:31.329Z,13.44
2022-10-26T06:16:47.249Z,13.50
2022-10-26T06:19:02.856Z,13.49
2022-10-26T06:21:22.571Z,13.46
2022-10-26T06:23:50.361Z,13.42
2022-10-26T06:26:04.009Z,13.41
2022-10-26T06:28:19.727Z,13.42
2022-10-26T06:30:24.733Z,13.42
2022-10-26T06:32:31.825Z,13.41
2022-10-26T06:34:39.847Z,13.34
2022-10-26T06:36:47.500Z,13.35
2022-10-26T06:38:58.033Z,13.32
2022-10-26T06:41:03.321Z,13.26
2022-10-26T06:43:14.730Z,13.29
2022-10-26T06:45:20.857Z,13.30
2022-10-26T06:47:31.350Z,13.30
2022-10-26T06:49:41.026Z,13.30
2022-10-26T06:51:54.195Z,13.35
2022-10-26T06:54:08.450Z,13.38
2022-10-26T06:56:15.666Z,13.44
2022-10-26T06:58:22.206Z,13.45
2022-10-26T07:00:29.895Z,13.42
2022-10-26T07:02:34.896Z,13.44
2022-10-26T07:04:39.705Z,13.45
2022-10-26T07:06:44.848Z,13.44
2022-10-26T07:08:52.045Z,13.43
2022-10-26T07:10:56.827Z,13.47
2022-10-26T07:13:01.601Z,13.51
2022-10-26T07:17:15.085Z,13.59
2022-10-26T07:19:19.819Z,13.67
2022-10-26T07:21:24.587Z,13.75
2022-10-26T07:25:40.509Z,13.92
2022-10-26T07:27:45.618Z,13.99
2022-10-26T07:29:50.421Z,14.08
2022-10-26T07:31:56.056Z,14.18
2022-10-26T07:34:00.909Z,14.26
2022-10-26T07:36:05.651Z,14.29
2022-10-26T07:38:11.283Z,14.34
2022-10-26T07:40:16.452Z,14.33
2022-10-26T07:42:23.595Z,14.30
2022-10-26T07:44:31.298Z,14.34
2022-10-26T07:46:36.042Z,14.36
2022-10-26T07:48:41.274Z,14.36
2022-10-26T07:50:46.040Z,14.38
2022-10-26T07:52:51.131Z,14.38
2022-10-26T07:54:56.234Z,14.39
2022-10-26T07:57:03.011Z,14.41
2022-10-26T07:59:10.618Z,14.46
2022-10-26T08:01:17.866Z,14.47
2022-10-26T08:03:23.833Z,14.50
2022-10-26T08:07:35.488Z,14.55
2022-10-26T08:09:40.218Z,14.57
2022-10-26T08:11:45.085Z,14.56
2022-10-26T08:16:02.871Z,14.64
2022-10-26T08:18:08.494Z,14.64
2022-10-26T08:20:14.534Z,14.61
2022-10-26T08:22:19.383Z,14.59
2022-10-26T08:24:25.593Z,14.57
2022-10-26T08:26:30.746Z,14.55
2022-10-26T08:28:35.294Z,14.51
2022-10-26T08:30:40.040Z,14.53
2022-10-26T08:32:47.726Z,14.58
2022-10-26T08:34:52.915Z,14.65
2022-10-26T08:36:57.708Z,14.69
2022-10-26T08:39:02.553Z,14.73
2022-10-26T08:41:11.701Z,14.79
2022-10-26T08:43:22.512Z,14.92
2022-10-26T08:45:36.926Z,15.05
2022-10-26T08:47:52.617Z,15.15
2022-10-26T08:50:02.922Z,15.26
2022-10-26T08:52:12.150Z,15.34
2022-10-26T08:54:22.315Z,15.44
2022-10-26T08:56:29.629Z,15.54
2022-10-26T08:58:41.509Z,15.66
2022-10-26T09:00:47.104Z,15.67
2022-10-26T09:02:56.050Z,15.72
2022-10-26T09:05:02.166Z,15.79
2022-10-26T09:07:14.957Z,15.82
2022-10-26T09:09:24.891Z,15.90
2022-10-26T09:11:52.882Z,15.97
2022-10-26T09:14:07.561Z,16.03
2022-10-26T09:16:25.691Z,16.08
2022-10-26T09:18:43.039Z,16.12
2022-10-26T09:21:11.121Z,16.18
2022-10-26T09:23:30.470Z,16.28
2022-10-26T09:25:42.645Z,16.35
2022-10-26T09:27:52.366Z,16.44
2022-10-26T09:29:59.376Z,16.48
2022-10-26T09:32:06.102Z,16.53
2022-10-26T09:34:21.540Z,16.55
2022-10-26T09:36:26.563Z,16.48
2022-10-26T09:38:33.476Z,16.48
2022-10-26T09:40:45.275Z,16.47
2022-10-26T09:42:55.153Z,16.46
2022-10-26T09:45:04.779Z,16.54
2022-10-26T09:47:18.890Z,16.61
2022-10-26T09:49:33.103Z,16.70
2022-10-26T09:51:42.478Z,16.73
2022-10-26T09:53:47.393Z,16.77
2022-10-26T09:56:04.229Z,16.74
2022-10-26T09:58:16.755Z,16.79
2022-10-26T10:00:23.638Z,16.81
2022-10-26T10:02:40.015Z,16.85
2022-10-26T10:04:50.758Z,16.90
2022-10-26T10:07:14.726Z,16.93
2022-10-26T10:09:21.158Z,16.93
2022-10-26T10:11:39.491Z,17.01
2022-10-26T10:13:45.955Z,17.07
2022-10-26T10:15:57.968Z,17.16
2022-10-26T10:18:03.401Z,17.23
2022-10-26T10:20:22.669Z,17.29
2022-10-26T10:22:31.110Z,17.36
2022-10-26T10:24:38.477Z,17.47
2022-10-26T10:26:59.819Z,17.58
2022-10-26T10:29:04.593Z,17.63
2022-10-26T10:31:22.682Z,17.73
2022-10-26T10:33:36.470Z,17.81
2022-10-26T10:35:52.904Z,17.86
2022-10-26T10:37:57.664Z,17.90
2022-10-26T10:40:05.306Z,17.97
2022-10-26T10:42:20.051Z,18.05
2022-10-26T10:44:30.188Z,18.07
2022-10-26T10:46:35.168Z,18.14
2022-10-26T10:48:49.259Z,18.19
2022-10-26T10:50:59.724Z,18.26
2022-10-26T10:53:23.350Z,18.29
2022-10-26T10:55:31.238Z,18.30
2022-10-26T10:57:48.052Z,18.29
2022-10-26T11:00:05.423Z,18.25
2022-10-26T11:02:34.698Z,18.26
2022-10-26T11:05:15.170Z,18.27
2022-10-26T11:07:25.038Z,18.33
2022-10-26T11:09:32.456Z,18.32
2022-10-26T11:11:45.458Z,18.36
2022-10-26T11:13:56.791Z,18.38
2022-10-26T11:16:05.816Z,18.40
2022-10-26T11:18:15.961Z,18.42
2022-10-26T11:20:26.136Z,18.42
2022-10-26T11:22:38.554Z,18.43
2022-10-26T11:24:47.637Z,18.43
2022-10-26T11:26:57.337Z,18.45
2022-10-26T11:29:06.078Z,18.43
2022-10-26T11:31:16.318Z,18.47
2022-10-26T11:33:28.510Z,18.49
2022-10-26T11:35:38.440Z,18.51
2022-10-26T11:37:50.683Z,18.57
2022-10-26T11:40:05.574Z,18.62
2022-10-26T11:42:22.885Z,18.66
2022-10-26T11:44:34.525Z,18.68
2022-10-26T11:46:44.615Z,18.72
2022-10-26T11:48:57.294Z,18.77
2022-10-26T11:51:02.995Z,18.78
2022-10-26T11:53:15.748Z,18.81
2022-10-26T11:55:21.750Z,18.86
2022-10-26T11:57:29.070Z,18.89
2022-10-26T11:59:36.507Z,18.91
2022-10-26T12:01:41.368Z,18.93
2022-10-26T12:03:51.189Z,18.95
2022-10-26T12:05:56.918Z,19.02
2022-10-26T12:08:06.817Z,19.07
2022-10-26T12:10:27.691Z,19.08
2022-10-26T12:12:43.036Z,19.07
2022-10-26T12:14:52.294Z,19.06
2022-10-26T12:17:05.427Z,19.13
2022-10-26T12:19:18.791Z,19.12
2022-10-26T12:21:23.982Z,19.12
2022-10-26T12:23:40.485Z,19.14
2022-10-26T12:26:30.209Z,19.17
2022-10-26T12:28:43.706Z,19.20
2022-10-26T12:30:48.473Z,19.21
2022-10-26T12:32:56.053Z,19.20
2022-10-26T12:35:06.800Z,19.23
2022-10-26T12:37:29.331Z,19.24
2022-10-26T12:39:35.672Z,19.20
2022-10-26T12:41:43.290Z,19.22
2022-10-26T12:43:48.512Z,19.22
2022-10-26T12:46:23.124Z,19.25
2022-10-26T12:48:43.122Z,19.27
2022-10-26T12:50:47.884Z,19.29
2022-10-26T12:52:56.067Z,19.29
2022-10-26T12:55:20.905Z,19.29
2022-10-26T12:57:35.644Z,19.24
2022-10-26T12:59:49.008Z,19.27
2022-10-26T13:02:29.369Z,19.23
2022-10-26T13:05:22.348Z,19.30
2022-10-26T13:07:28.635Z,19.33
2022-10-26T13:09:35.854Z,19.38
2022-10-26T13:11:48.884Z,19.45
2022-10-26T13:14:03.445Z,19.53
2022-10-26T13:16:13.056Z,19.63
2022-10-26T13:18:20.780Z,19.71
2022-10-26T13:20:25.731Z,19.73
2022-10-26T13:22:31.434Z,19.68
2022-10-26T13:27:12.536Z,19.43
2022-10-26T13:29:19.942Z,19.31
2022-10-26T13:31:54.673Z,19.25
2022-10-26T13:34:03.024Z,19.15
2022-10-26T13:36:21.045Z,19.09
2022-10-26T13:38:30.030Z,19.05
2022-10-26T13:40:35.003Z,19.03
2022-10-26T13:42:48.704Z,18.97
2022-10-26T13:44:59.080Z,18.92
2022-10-26T13:47:07.009Z,18.87
2022-10-26T13:49:21.091Z,18.84
2022-10-26T13:51:44.006Z,18.80
2022-10-26T13:53:55.371Z,18.76
2022-10-26T13:56:06.113Z,18.74
2022-10-26T13:58:21.394Z,18.72
2022-10-26T14:00:31.844Z,18.71
2022-10-26T14:02:36.696Z,18.66
2022-10-26T14:04:41.422Z,18.65
2022-10-26T14:06:51.775Z,18.64
2022-10-26T14:09:00.845Z,18.62
2022-10-26T14:11:05.966Z,18.58
2022-10-26T14:13:12.293Z,18.61
2022-10-26T14:15:18.340Z,18.62
2022-10-26T14:17:28.670Z,18.63
2022-10-26T14:19:36.014Z,18.62
2022-10-26T14:21:50.056Z,18.62
2022-10-26T14:23:57.070Z,18.64
2022-10-26T14:26:02.012Z,18.66
2022-10-26T14:28:28.299Z,18.67
2022-10-26T14:30:37.202Z,18.69
2022-10-26T14:32:44.611Z,18.76
2022-10-26T14:34:49.480Z,18.74
2022-10-26T14:36:58.795Z,18.73
2022-10-26T14:39:06.404Z,18.71
2022-10-26T14:41:11.457Z,18.71
2022-10-26T14:43:21.219Z,18.63
2022-10-26T14:47:59.180Z,18.59
2022-10-26T14:50:05.035Z,18.62
2022-10-26T14:52:10.511Z,18.61
2022-10-26T14:54:23.685Z,18.65
2022-10-26T14:56:31.875Z,18.67
2022-10-26T14:58:37.840Z,18.69
2022-10-26T15:00:43.336Z,18.70
2022-10-26T15:02:50.731Z,18.70
2022-10-26T15:05:03.866Z,18.71
2022-10-26T15:07:18.334Z,18.71
2022-10-26T15:09:41.868Z,18.71
2022-10-26T15:11:47.198Z,18.71
2022-10-26T15:13:52.089Z,18.71
2022-10-26T15:15:58.560Z,18.71
2022-10-26T15:18:04.527Z,18.73
2022-10-26T15:20:18.877Z,18.77
2022-10-26T15:22:32.053Z,18.77
2022-10-26T15:24:40.674Z,18.78
2022-10-26T15:26:46.330Z,18.78
2022-10-26T15:28:52.858Z,18.77
2022-10-26T15:31:05.744Z,18.78
2022-10-26T15:33:22.926Z,18.77
2022-10-26T15:35:32.970Z,18.75
2022-10-26T15:37:37.725Z,18.72
2022-10-26T15:39:42.801Z,18.71
2022-10-26T15:41:50.371Z,18.73
2022-10-26T15:43:57.637Z,18.63
2022-10-26T15:46:02.402Z,18.52
2022-10-26T15:48:22.855Z,18.46
2022-10-26T15:50:31.661Z,18.46
2022-10-26T15:52:36.358Z,18.48
2022-10-26T15:54:41.076Z,18.50
2022-10-26T15:56:46.463Z,18.50
2022-10-26T15:58:51.195Z,18.54
2022-10-26T16:00:56.005Z,18.55
2022-10-26T16:03:00.919Z,18.54
2022-10-26T16:05:05.847Z,18.55
2022-10-26T16:07:15.825Z,18.58
2022-10-26T16:09:21.672Z,18.55
2022-10-26T16:11:28.638Z,18.55
2022-10-26T16:13:33.460Z,18.58
2022-10-26T16:15:39.793Z,18.57
2022-10-26T16:17:44.549Z,18.57
2022-10-26T16:19:50.758Z,18.54
2022-10-26T16:21:55.555Z,18.51
2022-10-26T16:24:02.905Z,18.51
2022-10-26T16:26:08.055Z,18.48
2022-10-26T16:28:13.677Z,18.41
2022-10-26T16:30:19.503Z,18.38
2022-10-26T16:32:26.885Z,18.38
2022-10-26T16:34:31.805Z,18.38
2022-10-26T16:36:38.699Z,18.38
2022-10-26T16:38:43.713Z,18.39
2022-10-26T16:40:51.175Z,18.39
2022-10-26T16:42:55.878Z,18.37
2022-10-26T16:45:02.789Z,18.33
2022-10-26T16:47:08.131Z,18.29
2022-10-26T16:49:13.081Z,18.26
2022-10-26T16:51:19.923Z,18.25
2022-10-26T16:53:24.814Z,18.26
2022-10-26T16:55:29.887Z,18.27
2022-10-26T16:57:37.697Z,18.22
2022-10-26T16:59:42.594Z,18.21
2022-10-26T17:01:47.374Z,18.20
2022-10-26T17:03:54.166Z,18.21
2022-10-26T17:06:00.636Z,18.21
2022-10-26T17:08:05.485Z,18.20
2022-10-26T17:10:11.169Z,18.18
2022-10-26T17:12:16.975Z,18.17
2022-10-26T17:14:24.424Z,18.17
2022-10-26T17:16:29.497Z,18.16
2022-10-26T17:18:34.110Z,18.11
2022-10-26T17:20:39.000Z,18.08
2022-10-26T17:22:43.820Z,18.03
2022-10-26T17:24:48.722Z,17.99
2022-10-26T17:26:53.457Z,17.94
2022-10-26T17:29:00.271Z,17.87
2022-10-26T17:31:10.012Z,17.82
2022-10-26T17:33:15.297Z,17.73
2022-10-26T17:35:20.144Z,17.65
2022-10-26T17:37:24.990Z,17.56
2022-10-26T17:39:29.863Z,17.44
2022-10-26T17:41:34.620Z,17.36
2022-10-26T17:43:41.822Z,17.30
2022-10-26T17:45:46.605Z,17.25
2022-10-26T17:47:54.063Z,17.20
2022-10-26T17:49:59.004Z,17.15
2022-10-26T17:52:04.210Z,17.13
2022-10-26T17:54:09.465Z,17.09
2022-10-26T17:56:15.001Z,17.00
2022-10-26T17:58:19.804Z,16.93
2022-10-26T18:00:24.553Z,16.90
2022-10-26T18:02:31.967Z,16.88
2022-10-26T18:04:39.463Z,16.85
2022-10-26T18:06:44.212Z,16.83
2022-10-26T18:08:49.279Z,16.80
2022-10-26T18:10:55.465Z,16.78
2022-10-26T18:13:00.180Z,16.74
2022-10-26T18:15:05.133Z,16.70
2022-10-26T18:17:09.862Z,16.67
2022-10-26T18:19:14.811Z,16.64
2022-10-26T18:21:23.553Z,16.62
2022-10-26T18:23:28.568Z,16.60
2022-10-26T18:25:34.063Z,16.57
2022-10-26T18:27:38.915Z,16.55
2022-10-26T18:29:43.664Z,16.53
2022-10-26T18:31:49.470Z,16.44
2022-10-26T18:33:58.197Z,16.38
2022-10-26T18:36:08.185Z,16.35
2022-10-26T18:38:15.540Z,16.32
2022-10-26T18:40:20.517Z,16.26
2022-10-26T18:42:28.026Z,16.23
2022-10-26T18:44:32.846Z,16.19
2022-10-26T18:46:45.483Z,16.18
2022-10-26T18:48:50.303Z,16.13
2022-10-26T18:50:54.981Z,16.10
2022-10-26T18:52:59.842Z,16.08
2022-10-26T18:55:07.791Z,16.05
2022-10-26T18:57:12.546Z,16.02
2022-10-26T18:59:17.318Z,16.00
2022-10-26T19:01:24.151Z,15.99
2022-10-26T19:03:29.184Z,15.98
2022-10-26T19:05:34.001Z,15.97
2022-10-26T19:07:40.174Z,15.95
2022-10-26T19:09:45.020Z,15.93
2022-10-26T19:11:52.497Z,15.92
2022-10-26T19:13:58.056Z,15.90
2022-10-26T19:16:05.212Z,15.88
2022-10-26T19:18:10.061Z,15.86
2022-10-26T19:20:14.932Z,15.81
2022-10-26T19:22:22.466Z,15.82
2022-10-26T19:24:27.314Z,15.81
2022-10-26T19:26:36.780Z,15.78
2022-10-26T19:28:46.044Z,15.74
2022-10-26T19:30:50.791Z,15.70
2022-10-26T19:32:55.656Z,15.68
2022-10-26T19:35:00.397Z,15.67
2022-10-26T19:37:05.684Z,15.68
2022-10-26T19:39:10.467Z,15.70
2022-10-26T19:41:17.081Z,15.70
2022-10-26T19:43:24.802Z,15.67
2022-10-26T19:45:32.272Z,15.65
2022-10-26T19:47:37.124Z,15.59
2022-10-26T19:49:42.058Z,15.58
2022-10-26T19:51:47.947Z,15.55
2022-10-26T19:53:52.768Z,15.53
2022-10-26T19:55:59.926Z,15.52
2022-10-26T19:58:04.639Z,15.50
2022-10-26T20:00:11.358Z,15.47
2022-10-26T20:02:26.612Z,15.46
2022-10-26T20:04:31.511Z,15.40
2022-10-26T20:06:36.284Z,15.39
2022-10-26T20:08:41.705Z,15.39
2022-10-26T20:10:47.311Z,15.35
2022-10-26T20:12:52.463Z,15.32
2022-10-26T20:14:57.494Z,15.26
2022-10-26T20:17:02.267Z,15.24
2022-10-26T20:19:09.633Z,15.22
2022-10-26T20:21:16.404Z,15.15
2022-10-26T20:23:21.168Z,15.15
2022-10-26T20:25:26.089Z,15.15
2022-10-26T20:27:30.943Z,15.15
2022-10-26T20:29:35.737Z,15.15
2022-10-26T20:31:40.443Z,15.15
2022-10-26T20:33:45.843Z,15.12
2022-10-26T20:35:58.465Z,15.11
2022-10-26T20:38:04.556Z,15.08
2022-10-26T20:40:12.616Z,15.06
2022-10-26T20:42:28.394Z,15.05
2022-10-26T20:44:37.993Z,15.02
2022-10-26T20:46:43.525Z,15.01
2022-10-26T20:48:48.975Z,15.00
2022-10-26T20:51:06.033Z,14.98
2022-10-26T20:53:16.721Z,14.96
2022-10-26T20:55:32.088Z,14.89
2022-10-26T20:57:38.176Z,14.87
2022-10-26T20:59:49.553Z,14.86
2022-10-26T21:01:54.429Z,14.86
2022-10-26T21:04:00.519Z,14.82
2022-10-26T21:06:08.294Z,14.79
2022-10-26T21:08:13.095Z,14.76
2022-10-26T21:10:18.018Z,14.74
2022-10-26T21:12:22.871Z,14.74
2022-10-26T21:14:27.643Z,14.69
2022-10-26T21:16:32.442Z,14.65
2022-10-26T21:18:37.313Z,14.60
2022-10-26T21:20:42.025Z,14.54
2022-10-26T21:22:49.386Z,14.50
2022-10-26T21:24:54.181Z,14.47
2022-10-26T21:26:58.887Z,14.45
2022-10-26T21:29:03.925Z,14.47
2022-10-26T21:31:11.082Z,14.48
2022-10-26T21:33:16.003Z,14.45
2022-10-26T21:35:21.861Z,14.41
2022-10-26T21:37:28.086Z,14.38
2022-10-26T21:39:35.408Z,14.37
2022-10-26T21:41:40.137Z,14.36
2022-10-26T21:43:47.153Z,14.35
2022-10-26T21:45:59.078Z,14.35
2022-10-26T21:48:03.850Z,14.33
2022-10-26T21:50:09.761Z,14.31
2022-10-26T21:52:14.723Z,14.29
2022-10-26T21:54:19.444Z,14.26
2022-10-26T21:56:26.855Z,14.24
2022-10-26T21:58:32.309Z,14.21
2022-10-26T22:00:37.309Z,14.19
2022-10-26T22:02:42.067Z,14.19
2022-10-26T22:04:46.791Z,14.19
2022-10-26T22:06:51.513Z,14.20
2022-10-26T22:08:56.664Z,14.19
2022-10-26T22:11:01.283Z,14.16
2022-10-26T22:13:08.588Z,14.16
2022-10-26T22:15:13.829Z,14.14
2022-10-26T22:17:18.311Z,14.08
2022-10-26T22:19:23.126Z,14.02
2022-10-26T22:21:29.950Z,14.00
2022-10-26T22:23:36.871Z,13.98
2022-10-26T22:25:41.780Z,13.94
2022-10-26T22:27:46.840Z,13.90
2022-10-26T22:29:54.138Z,13.85
2022-10-26T22:31:59.001Z,13.83
2022-10-26T22:34:07.726Z,13.77
2022-10-26T22:36:15.435Z,13.78
2022-10-26T22:38:20.134Z,13.73
2022-10-26T22:40:24.979Z,13.69
2022-10-26T22:42:29.869Z,13.63
2022-10-26T22:44:34.644Z,13.60
2022-10-26T22:46:42.034Z,13.63
2022-10-26T22:48:47.233Z,13.62
2022-10-26T22:50:51.703Z,13.58
2022-10-26T22:52:56.505Z,13.58
2022-10-26T22:55:01.277Z,13.58
2022-10-26T22:57:06.138Z,13.59
2022-10-26T22:59:10.941Z,13.58
2022-10-26T23:01:18.297Z,13.61
2022-10-26T23:03:25.879Z,13.59
2022-10-26T23:05:30.701Z,13.59
2022-10-26T23:07:35.439Z,13.59
2022-10-26T23:09:40.222Z,13.58
2022-10-26T23:11:44.961Z,13.59
2022-10-26T23:13:50.008Z,13.59
2022-10-26T23:15:54.724Z,13.61
2022-10-26T23:17:59.734Z,13.56
2022-10-26T23:20:08.032Z,13.56
2022-10-26T23:22:12.780Z,13.57
2022-10-26T23:24:17.497Z,13.59
2022-10-26T23:26:23.786Z,13.58
2022-10-26T23:28:31.295Z,13.55
2022-10-26T23:30:36.096Z,13.48
2022-10-26T23:32:40.795Z,13.44
2022-10-26T23:34:45.536Z,13.37
2022-10-26T23:36:53.358Z,13.36
2022-10-26T23:38:58.107Z,13.33
2022-10-26T23:41:03.128Z,13.33
2022-10-26T23:43:07.734Z,13.26
2022-10-26T23:45:13.381Z,13.24
2022-10-26T23:47:18.100Z,13.25
2022-10-26T23:49:22.970Z,13.21
2022-10-26T23:51:27.810Z,13.17
2022-10-26T23:53:35.231Z,13.13
2022-10-26T23:55:40.130Z,13.13
2022-10-26T23:57:44.978Z,13.12
2022-10-26T23:59:49.730Z,13.12
